YM Uniformity — BLHQ — position and weather

sailwx.info

Track history (hours):
 
Tides and Currents Weather Stations Pressure Air Temp Water Temp Dewpoint Dewpoint Depression Visibility Wind Speed Wind Dir Waves Ship Positions

YM Uniformity

Last reported at 2017-Dec-16 05:13 UTC. Time now 2017-Dec-16 11:16 UTC.
Position N 31°49' W 080°25'.

Length 333 m; draft 11 m.

Type: Ship (hazmat cat D). MMSI: 416468000.

Date/timePositionNaut miles runAvg speedWind from/ knotsBaromVisibWave heightAir tempDewpointWater temp
2017-Dec-16 05:13N 31°49' W 080°25'5 9.8
2017-Dec-16 04:44N 31°52' W 080°30'2 9.4
2017-Dec-16 04:31N 31°53' W 080°32'5 9.6
2017-Dec-16 04:01N 31°55' W 080°37'5 9.7
2017-Dec-16 03:31N 31°57' W 080°42'611.3
2017-Dec-16 03:00N 32°00' W 080°48'713.2
2017-Dec-16 02:31N 32°02' W 080°55'611.8
2017-Dec-16 02:00N 32°06' W 081°01'4 8.2
2017-Dec-16 01:30N 32°05' W 081°06'3 5.6
2017-Dec-16 01:00N 32°07' W 081°08'0 0.8
2017-Dec-16 00:29N 32°08' W 081°08'0 0.0
2017-Dec-15 23:59N 32°08' W 081°08'0 0.0
2017-Dec-15 23:29N 32°08' W 081°08'0 0.0
2017-Dec-15 22:59N 32°08' W 081°08'0 0.0
2017-Dec-15 22:29N 32°08' W 081°08'0 0.0
2017-Dec-15 21:59N 32°08' W 081°08'0 0.0
2017-Dec-15 21:29N 32°08' W 081°08'0 0.0
2017-Dec-15 20:53N 32°08' W 081°08'0 0.0
2017-Dec-15 20:29N 32°08' W 081°08'0 0.0
2017-Dec-15 19:59N 32°08' W 081°08'0 0.0
2017-Dec-15 19:29N 32°08' W 081°08'0 0.0
2017-Dec-15 18:59N 32°08' W 081°08'0 0.0
2017-Dec-15 18:29N 32°08' W 081°08'0 0.0
2017-Dec-15 17:59N 32°08' W 081°08'0 0.0
2017-Dec-15 17:29N 32°08' W 081°08'0 0.0
2017-Dec-15 16:59N 32°08' W 081°08'0 0.0
2017-Dec-15 16:23N 32°08' W 081°08'0 0.0
2017-Dec-15 15:53N 32°08' W 081°08'0 0.0
2017-Dec-15 15:29N 32°08' W 081°08'0 0.0
2017-Dec-15 14:53N 32°08' W 081°08'0 0.0
2017-Dec-15 14:29N 32°08' W 081°08'0 0.0
2017-Dec-15 13:59N 32°08' W 081°08'0 0.0
2017-Dec-15 13:29N 32°08' W 081°08'0 0.0
2017-Dec-15 12:53N 32°08' W 081°08'0 0.0
2017-Dec-15 12:29N 32°08' W 081°08'0 0.0
2017-Dec-15 11:59N 32°08' W 081°08'0 0.0
2017-Dec-15 11:29N 32°08' W 081°08'0 0.0
2017-Dec-15 10:53N 32°08' W 081°08'0 0.0
2017-Dec-15 10:29N 32°08' W 081°08'0 0.0
2017-Dec-15 09:59N 32°08' W 081°08'0 0.0
2017-Dec-15 09:29N 32°08' W 081°08'0 0.0
2017-Dec-15 08:59N 32°08' W 081°08'0 0.0
2017-Dec-15 08:29N 32°08' W 081°08'0 0.0
2017-Dec-15 07:59N 32°08' W 081°08'0 0.0
2017-Dec-15 07:29N 32°08' W 081°08'0 0.0
2017-Dec-15 06:59N 32°08' W 081°08'0 0.0
2017-Dec-15 06:29N 32°08' W 081°08'0 0.0
2017-Dec-15 05:59N 32°08' W 081°08'0 0.0
2017-Dec-15 05:29N 32°08' W 081°08'0 0.0
2017-Dec-15 04:59N 32°08' W 081°08'0 0.0
2017-Dec-15 04:29N 32°08' W 081°08'0 0.0
2017-Dec-15 03:53N 32°08' W 081°08'0 0.1
2017-Dec-15 02:30N 32°08' W 081°08'8 5.4
2017-Dec-15 01:00N 32°05' W 080°59'510.5
2017-Dec-15 00:30N 32°02' W 080°54'196 6.2
2017-Dec-13 16:54N 34°11' W 077°57'0 0.0
2017-Dec-12 09:43N 34°12' W 077°57'1 2.6
2017-Dec-12 09:30N 34°12' W 077°57'0 0.1
2017-Dec-12 09:00N 34°12' W 077°57'95 5.3
2017-Dec-11 15:01N 34°26' W 076°04'112.4
2017-Dec-11 14:58N 34°27' W 076°04'54913.8
2017-Dec-09 23:09N 42°17' W 070°02'317.9
2017-Dec-09 23:00N 42°17' W 070°05'917.9
2017-Dec-09 22:30N 42°18' W 070°17'917.7
2017-Dec-09 22:00N 42°19' W 070°29'917.1
2017-Dec-09 21:30N 42°20' W 070°41'815.2
2017-Dec-09 21:00N 42°23' W 070°50'510.1
2017-Dec-09 20:30N 42°21' W 070°56'4 7.0
2017-Dec-09 20:00N 42°21' W 071°01'0 0.5
2017-Dec-09 19:29N 42°21' W 071°01'0 0.0
2017-Dec-09 18:59N 42°21' W 071°01'0 0.0
2017-Dec-09 18:29N 42°21' W 071°01'0 0.0
2017-Dec-09 17:59N 42°21' W 071°01'0 0.0
2017-Dec-09 16:29N 42°21' W 071°01'0 0.0
2017-Dec-09 15:56N 42°21' W 071°01'0 0.0
2017-Dec-09 14:26N 42°21' W 071°01'0 0.0
2017-Dec-09 13:56N 42°21' W 071°01'0 0.0
2017-Dec-09 13:20N 42°21' W 071°01'0 0.0
2017-Dec-09 12:38N 42°21' W 071°01'0 0.0
2017-Dec-09 11:41N 42°21' W 071°01'0 0.0
2017-Dec-09 11:23N 42°21' W 071°01'0 0.0
2017-Dec-09 10:59N 42°21' W 071°01'0 0.0
2017-Dec-09 10:29N 42°21' W 071°01'0 0.0
2017-Dec-09 09:59N 42°21' W 071°01'0 0.0
2017-Dec-09 08:41N 42°21' W 071°01'0 0.0
2017-Dec-09 08:23N 42°21' W 071°01'0 0.0
2017-Dec-09 07:50N 42°21' W 071°01'0 0.0
2017-Dec-09 07:26N 42°21' W 071°01'0 0.0
2017-Dec-09 06:59N 42°21' W 071°01'0 0.0
2017-Dec-09 06:29N 42°21' W 071°01'0 0.0
2017-Dec-09 05:59N 42°21' W 071°01'0 0.0
2017-Dec-09 03:32N 42°21' W 071°01'0 0.0
2017-Dec-09 03:20N 42°21' W 071°01'0 0.0
2017-Dec-09 02:50N 42°21' W 071°01'0 0.0
2017-Dec-09 02:29N 42°21' W 071°01'0 0.0
2017-Dec-09 01:59N 42°21' W 071°01'0 0.0
2017-Dec-09 01:23N 42°21' W 071°01'0 0.0
2017-Dec-09 00:44N 42°21' W 071°01'0 0.0
2017-Dec-09 00:20N 42°21' W 071°01'0 0.0
2017-Dec-08 23:50N 42°21' W 071°01'0 0.0
2017-Dec-08 23:26N 42°21' W 071°01'0 0.0
2017-Dec-08 22:53N 42°21' W 071°01'0 0.0
2017-Dec-08 22:23N 42°21' W 071°01'0 0.0
2017-Dec-08 21:59N 42°21' W 071°01'0 0.0
2017-Dec-08 21:29N 42°21' W 071°01'0 0.0
2017-Dec-08 20:56N 42°21' W 071°01'0 0.0
2017-Dec-08 20:29N 42°21' W 071°01'0 0.0
2017-Dec-08 19:59N 42°21' W 071°01'0 0.0
2017-Dec-08 19:29N 42°21' W 071°01'0 0.8
2017-Dec-08 19:00N 42°21' W 071°01'3 5.4
2017-Dec-08 18:30N 42°20' W 070°57'510.5
2017-Dec-08 18:00N 42°24' W 070°52'5 8.9
2017-Dec-08 17:29N 42°23' W 070°46'1 2.0
2017-Dec-08 17:00N 42°24' W 070°44'4 8.8
2017-Dec-08 16:30N 42°22' W 070°39'611.4
2017-Dec-08 16:00N 42°22' W 070°31'611.3
2017-Dec-08 15:30N 42°21' W 070°23'611.6
2017-Dec-08 15:00N 42°20' W 070°16'612.3
2017-Dec-08 14:31N 42°19' W 070°07'612.5
2017-Dec-08 14:00N 42°18' W 069°59'714.0
2017-Dec-08 13:30N 42°12' W 069°55'194 8.7
2017-Dec-07 15:07N 40°25' W 073°31'3 9.6
2017-Dec-07 14:51N 40°25' W 073°34'4 9.5
2017-Dec-07 14:28N 40°25' W 073°39'5 9.4
2017-Dec-07 13:58N 40°26' W 073°45'5 9.8
2017-Dec-07 13:30N 40°27' W 073°51'4 8.2
2017-Dec-07 13:00N 40°29' W 073°55'713.8
2017-Dec-07 12:31N 40°34' W 074°02'611.5
2017-Dec-07 12:00N 40°40' W 074°03'1 2.5
2017-Dec-07 11:30N 40°40' W 074°05'0 0.1
2017-Dec-07 10:59N 40°40' W 074°05'0 0.0
2017-Dec-07 10:29N 40°40' W 074°05'0 0.0
2017-Dec-07 09:59N 40°40' W 074°05'0 0.0
2017-Dec-07 09:29N 40°40' W 074°05'0 0.0
2017-Dec-07 08:59N 40°40' W 074°05'0 0.0
2017-Dec-07 08:29N 40°40' W 074°05'0 0.0
2017-Dec-07 07:59N 40°40' W 074°05'0 0.0
2017-Dec-07 07:29N 40°40' W 074°05'0 0.0
2017-Dec-07 06:59N 40°40' W 074°05'0 0.0
2017-Dec-07 06:29N 40°40' W 074°05'0 0.0
2017-Dec-07 05:59N 40°40' W 074°05'0 0.0
2017-Dec-07 05:29N 40°40' W 074°05'0 0.0
2017-Dec-07 04:59N 40°40' W 074°05'0 0.0
2017-Dec-07 04:29N 40°40' W 074°05'0 0.0
2017-Dec-07 03:59N 40°40' W 074°05'0 0.0
2017-Dec-07 03:29N 40°40' W 074°05'0 0.0
2017-Dec-07 02:56N 40°40' W 074°05'0 0.0
2017-Dec-07 02:29N 40°40' W 074°05'0 0.0
2017-Dec-07 01:59N 40°40' W 074°05'0 0.0
2017-Dec-07 01:29N 40°40' W 074°05'0 0.0
2017-Dec-07 00:59N 40°40' W 074°05'0 0.0
2017-Dec-07 00:26N 40°40' W 074°05'0 0.0
2017-Dec-06 23:59N 40°40' W 074°05'0 0.0
2017-Dec-06 23:29N 40°40' W 074°05'0 0.0
2017-Dec-06 22:56N 40°40' W 074°05'0 0.0
2017-Dec-06 22:23N 40°40' W 074°05'0 0.0
2017-Dec-06 21:59N 40°40' W 074°05'0 0.0
2017-Dec-06 21:29N 40°40' W 074°05'0 0.0
2017-Dec-06 20:56N 40°40' W 074°05'  
Track history (hours):
 
Tides and Currents Weather Stations Pressure Air Temp Water Temp Dewpoint Dewpoint Depression Visibility Wind Speed Wind Dir Waves Ship Positions

YM Uniformity

Last reported at 2017-Dec-16 05:13 UTC. Time now 2017-Dec-16 11:16 UTC.
Position N 31°49' W 080°25'.

Length 333 m; draft 11 m.

Type: Ship (hazmat cat D). MMSI: 416468000.

Date/timePositionNaut miles runAvg speedWind from/ knotsBaromVisibWave heightAir tempDewpointWater temp
2017-Dec-16 05:13N 31°49' W 080°25'5 9.8
2017-Dec-16 04:44N 31°52' W 080°30'2 9.4
2017-Dec-16 04:31N 31°53' W 080°32'5 9.6
2017-Dec-16 04:01N 31°55' W 080°37'5 9.7
2017-Dec-16 03:31N 31°57' W 080°42'611.3
2017-Dec-16 03:00N 32°00' W 080°48'713.2
2017-Dec-16 02:31N 32°02' W 080°55'611.8
2017-Dec-16 02:00N 32°06' W 081°01'4 8.2
2017-Dec-16 01:30N 32°05' W 081°06'3 5.6
2017-Dec-16 01:00N 32°07' W 081°08'0 0.8
2017-Dec-16 00:29N 32°08' W 081°08'0 0.0
2017-Dec-15 23:59N 32°08' W 081°08'0 0.0
2017-Dec-15 23:29N 32°08' W 081°08'0 0.0
2017-Dec-15 22:59N 32°08' W 081°08'0 0.0
2017-Dec-15 22:29N 32°08' W 081°08'0 0.0
2017-Dec-15 21:59N 32°08' W 081°08'0 0.0
2017-Dec-15 21:29N 32°08' W 081°08'0 0.0
2017-Dec-15 20:53N 32°08' W 081°08'0 0.0
2017-Dec-15 20:29N 32°08' W 081°08'0 0.0
2017-Dec-15 19:59N 32°08' W 081°08'0 0.0
2017-Dec-15 19:29N 32°08' W 081°08'0 0.0
2017-Dec-15 18:59N 32°08' W 081°08'0 0.0
2017-Dec-15 18:29N 32°08' W 081°08'0 0.0
2017-Dec-15 17:59N 32°08' W 081°08'0 0.0
2017-Dec-15 17:29N 32°08' W 081°08'0 0.0
2017-Dec-15 16:59N 32°08' W 081°08'0 0.0
2017-Dec-15 16:23N 32°08' W 081°08'0 0.0
2017-Dec-15 15:53N 32°08' W 081°08'0 0.0
2017-Dec-15 15:29N 32°08' W 081°08'0 0.0
2017-Dec-15 14:53N 32°08' W 081°08'0 0.0
2017-Dec-15 14:29N 32°08' W 081°08'0 0.0
2017-Dec-15 13:59N 32°08' W 081°08'0 0.0
2017-Dec-15 13:29N 32°08' W 081°08'0 0.0
2017-Dec-15 12:53N 32°08' W 081°08'0 0.0
2017-Dec-15 12:29N 32°08' W 081°08'0 0.0
2017-Dec-15 11:59N 32°08' W 081°08'0 0.0
2017-Dec-15 11:29N 32°08' W 081°08'0 0.0
2017-Dec-15 10:53N 32°08' W 081°08'0 0.0
2017-Dec-15 10:29N 32°08' W 081°08'0 0.0
2017-Dec-15 09:59N 32°08' W 081°08'0 0.0
2017-Dec-15 09:29N 32°08' W 081°08'0 0.0
2017-Dec-15 08:59N 32°08' W 081°08'0 0.0
2017-Dec-15 08:29N 32°08' W 081°08'0 0.0
2017-Dec-15 07:59N 32°08' W 081°08'0 0.0
2017-Dec-15 07:29N 32°08' W 081°08'0 0.0
2017-Dec-15 06:59N 32°08' W 081°08'0 0.0
2017-Dec-15 06:29N 32°08' W 081°08'0 0.0
2017-Dec-15 05:59N 32°08' W 081°08'0 0.0
2017-Dec-15 05:29N 32°08' W 081°08'0 0.0
2017-Dec-15 04:59N 32°08' W 081°08'0 0.0
2017-Dec-15 04:29N 32°08' W 081°08'0 0.0
2017-Dec-15 03:53N 32°08' W 081°08'0 0.1
2017-Dec-15 02:30N 32°08' W 081°08'8 5.4
2017-Dec-15 01:00N 32°05' W 080°59'510.5
2017-Dec-15 00:30N 32°02' W 080°54'196 6.2
2017-Dec-13 16:54N 34°11' W 077°57'0 0.0
2017-Dec-12 09:43N 34°12' W 077°57'1 2.6
2017-Dec-12 09:30N 34°12' W 077°57'0 0.1
2017-Dec-12 09:00N 34°12' W 077°57'95 5.3
2017-Dec-11 15:01N 34°26' W 076°04'112.4
2017-Dec-11 14:58N 34°27' W 076°04'54913.8
2017-Dec-09 23:09N 42°17' W 070°02'317.9
2017-Dec-09 23:00N 42°17' W 070°05'917.9
2017-Dec-09 22:30N 42°18' W 070°17'917.7
2017-Dec-09 22:00N 42°19' W 070°29'917.1
2017-Dec-09 21:30N 42°20' W 070°41'815.2
2017-Dec-09 21:00N 42°23' W 070°50'510.1
2017-Dec-09 20:30N 42°21' W 070°56'4 7.0
2017-Dec-09 20:00N 42°21' W 071°01'0 0.5
2017-Dec-09 19:29N 42°21' W 071°01'0 0.0
2017-Dec-09 18:59N 42°21' W 071°01'0 0.0
2017-Dec-09 18:29N 42°21' W 071°01'0 0.0
2017-Dec-09 17:59N 42°21' W 071°01'0 0.0
2017-Dec-09 16:29N 42°21' W 071°01'0 0.0
2017-Dec-09 15:56N 42°21' W 071°01'0 0.0
2017-Dec-09 14:26N 42°21' W 071°01'0 0.0
2017-Dec-09 13:56N 42°21' W 071°01'0 0.0
2017-Dec-09 13:20N 42°21' W 071°01'0 0.0
2017-Dec-09 12:38N 42°21' W 071°01'0 0.0
2017-Dec-09 11:41N 42°21' W 071°01'0 0.0
2017-Dec-09 11:23N 42°21' W 071°01'0 0.0
2017-Dec-09 10:59N 42°21' W 071°01'0 0.0
2017-Dec-09 10:29N 42°21' W 071°01'0 0.0
2017-Dec-09 09:59N 42°21' W 071°01'0 0.0
2017-Dec-09 08:41N 42°21' W 071°01'0 0.0
2017-Dec-09 08:23N 42°21' W 071°01'0 0.0
2017-Dec-09 07:50N 42°21' W 071°01'0 0.0
2017-Dec-09 07:26N 42°21' W 071°01'0 0.0
2017-Dec-09 06:59N 42°21' W 071°01'0 0.0
2017-Dec-09 06:29N 42°21' W 071°01'0 0.0
2017-Dec-09 05:59N 42°21' W 071°01'0 0.0
2017-Dec-09 03:32N 42°21' W 071°01'0 0.0
2017-Dec-09 03:20N 42°21' W 071°01'0 0.0
2017-Dec-09 02:50N 42°21' W 071°01'0 0.0
2017-Dec-09 02:29N 42°21' W 071°01'0 0.0
2017-Dec-09 01:59N 42°21' W 071°01'0 0.0
2017-Dec-09 01:23N 42°21' W 071°01'0 0.0
2017-Dec-09 00:44N 42°21' W 071°01'0 0.0
2017-Dec-09 00:20N 42°21' W 071°01'0 0.0
2017-Dec-08 23:50N 42°21' W 071°01'0 0.0
2017-Dec-08 23:26N 42°21' W 071°01'0 0.0
2017-Dec-08 22:53N 42°21' W 071°01'0 0.0
2017-Dec-08 22:23N 42°21' W 071°01'0 0.0
2017-Dec-08 21:59N 42°21' W 071°01'0 0.0
2017-Dec-08 21:29N 42°21' W 071°01'0 0.0
2017-Dec-08 20:56N 42°21' W 071°01'0 0.0
2017-Dec-08 20:29N 42°21' W 071°01'0 0.0
2017-Dec-08 19:59N 42°21' W 071°01'0 0.0
2017-Dec-08 19:29N 42°21' W 071°01'0 0.8
2017-Dec-08 19:00N 42°21' W 071°01'3 5.4
2017-Dec-08 18:30N 42°20' W 070°57'510.5
2017-Dec-08 18:00N 42°24' W 070°52'5 8.9
2017-Dec-08 17:29N 42°23' W 070°46'1 2.0
2017-Dec-08 17:00N 42°24' W 070°44'4 8.8
2017-Dec-08 16:30N 42°22' W 070°39'611.4
2017-Dec-08 16:00N 42°22' W 070°31'611.3
2017-Dec-08 15:30N 42°21' W 070°23'611.6
2017-Dec-08 15:00N 42°20' W 070°16'612.3
2017-Dec-08 14:31N 42°19' W 070°07'612.5
2017-Dec-08 14:00N 42°18' W 069°59'714.0
2017-Dec-08 13:30N 42°12' W 069°55'194 8.7
2017-Dec-07 15:07N 40°25' W 073°31'3 9.6
2017-Dec-07 14:51N 40°25' W 073°34'4 9.5
2017-Dec-07 14:28N 40°25' W 073°39'5 9.4
2017-Dec-07 13:58N 40°26' W 073°45'5 9.8
2017-Dec-07 13:30N 40°27' W 073°51'4 8.2
2017-Dec-07 13:00N 40°29' W 073°55'713.8
2017-Dec-07 12:31N 40°34' W 074°02'611.5
2017-Dec-07 12:00N 40°40' W 074°03'1 2.5
2017-Dec-07 11:30N 40°40' W 074°05'0 0.1
2017-Dec-07 10:59N 40°40' W 074°05'0 0.0
2017-Dec-07 10:29N 40°40' W 074°05'0 0.0
2017-Dec-07 09:59N 40°40' W 074°05'0 0.0
2017-Dec-07 09:29N 40°40' W 074°05'0 0.0
2017-Dec-07 08:59N 40°40' W 074°05'0 0.0
2017-Dec-07 08:29N 40°40' W 074°05'0 0.0
2017-Dec-07 07:59N 40°40' W 074°05'0 0.0
2017-Dec-07 07:29N 40°40' W 074°05'0 0.0
2017-Dec-07 06:59N 40°40' W 074°05'0 0.0
2017-Dec-07 06:29N 40°40' W 074°05'0 0.0
2017-Dec-07 05:59N 40°40' W 074°05'0 0.0
2017-Dec-07 05:29N 40°40' W 074°05'0 0.0
2017-Dec-07 04:59N 40°40' W 074°05'0 0.0
2017-Dec-07 04:29N 40°40' W 074°05'0 0.0
2017-Dec-07 03:59N 40°40' W 074°05'0 0.0
2017-Dec-07 03:29N 40°40' W 074°05'0 0.0
2017-Dec-07 02:56N 40°40' W 074°05'0 0.0
2017-Dec-07 02:29N 40°40' W 074°05'0 0.0
2017-Dec-07 01:59N 40°40' W 074°05'0 0.0
2017-Dec-07 01:29N 40°40' W 074°05'0 0.0
2017-Dec-07 00:59N 40°40' W 074°05'0 0.0
2017-Dec-07 00:26N 40°40' W 074°05'0 0.0
2017-Dec-06 23:59N 40°40' W 074°05'0 0.0
2017-Dec-06 23:29N 40°40' W 074°05'0 0.0
2017-Dec-06 22:56N 40°40' W 074°05'0 0.0
2017-Dec-06 22:23N 40°40' W 074°05'0 0.0
2017-Dec-06 21:59N 40°40' W 074°05'0 0.0
2017-Dec-06 21:29N 40°40' W 074°05'0 0.0
2017-Dec-06 20:56N 40°40' W 074°05'  

Dump ship's entire track history